Terminal Aerodrome Forecast
Issued by NWS

Home | Current Version | Previous Version | Text Only | Print | Product List | Glossary On
Versions: 1 2 3 4 5 6 7 8 9 10 11 12
000
FTUS45 KGJT 191736
TAFCNY
TAF
KCNY 191736Z 1918/2018 22024G30KT P6SM FEW150 FEW250
     FM200000 30020G30KT P6SM FEW120 SCT150
     FM200300 06013KT P6SM FEW120 FEW150
     FM200800 VRB05KT P6SM FEW120 FEW250=

USA.gov is the U.S. government's official web portal to all federal, state and local government web resources and services.